UAKD 171600Z 33008MPS 9999 BKN060CB 21/06 Q1009 NOSIG RMK QFE723/0964
QNH:(hPa/inHg/mmHg)1009 / 29.8 / 757
QFE:(hPa/inHg/mmHg)963 / 28.43 / 722
Temperature21
Dew Point6
Visibility> 10000
Weather
Cloud CoverBKN (6000);
Transition Height10000 m./34100 ft.
Transition LevelFL360
SQUAWK